createdAt,value
2018-12-22T00:00:39.705Z,10.87
2018-12-22T00:03:07.160Z,10.89
2018-12-22T00:05:34.616Z,10.88
2018-12-22T00:08:02.023Z,10.93
2018-12-22T00:10:29.459Z,10.92
2018-12-22T00:12:56.873Z,10.96
2018-12-22T00:15:24.272Z,11.00
2018-12-22T00:17:51.796Z,11.03
2018-12-22T00:20:19.204Z,11.08
2018-12-22T00:22:46.595Z,11.02
2018-12-22T00:25:13.992Z,11.04
2018-12-22T00:27:41.452Z,11.05
2018-12-22T00:30:08.868Z,11.08
2018-12-22T00:32:36.267Z,11.07
2018-12-22T00:35:04.765Z,11.01
2018-12-22T00:37:32.173Z,10.82
2018-12-22T00:39:59.568Z,10.96
2018-12-22T00:42:26.970Z,10.93
2018-12-22T00:44:54.452Z,10.86
2018-12-22T00:47:21.855Z,10.88
2018-12-22T00:49:49.253Z,10.87
2018-12-22T00:52:17.636Z,10.86
2018-12-22T00:54:45.031Z,10.91
2018-12-22T00:57:12.471Z,10.86
2018-12-22T00:59:39.873Z,10.79
2018-12-22T01:02:07.316Z,10.77
2018-12-22T01:04:34.724Z,10.69
2018-12-22T01:07:02.121Z,10.71
2018-12-22T01:09:29.525Z,10.65
2018-12-22T01:11:56.925Z,10.58
2018-12-22T01:14:24.415Z,10.53
2018-12-22T01:16:51.822Z,10.55
2018-12-22T01:19:19.215Z,10.52
2018-12-22T01:21:46.609Z,10.46
2018-12-22T01:24:14.013Z,10.45
2018-12-22T01:26:41.406Z,10.44
2018-12-22T01:29:08.868Z,10.38
2018-12-22T01:31:36.260Z,10.31
2018-12-22T01:34:03.669Z,10.36
2018-12-22T01:36:31.069Z,10.44
2018-12-22T01:38:58.468Z,10.48
2018-12-22T01:41:25.868Z,10.52
2018-12-22T01:43:53.260Z,10.50
2018-12-22T01:46:20.665Z,10.53
2018-12-22T01:48:48.056Z,10.53
2018-12-22T01:51:15.460Z,10.49
2018-12-22T01:53:42.859Z,10.45
2018-12-22T01:56:10.505Z,10.52
2018-12-22T01:58:37.900Z,10.59
2018-12-22T02:01:05.297Z,10.49
2018-12-22T02:03:32.707Z,10.44
2018-12-22T02:06:00.096Z,10.49
2018-12-22T02:08:27.535Z,10.42
2018-12-22T02:10:55.572Z,10.50
2018-12-22T02:13:22.960Z,10.48
2018-12-22T02:15:50.361Z,10.52
2018-12-22T02:18:17.761Z,10.56
2018-12-22T02:20:45.168Z,10.54
2018-12-22T02:23:12.560Z,10.54
2018-12-22T02:25:39.964Z,10.46
2018-12-22T02:28:07.361Z,10.47
2018-12-22T02:30:34.772Z,10.59
2018-12-22T02:33:02.398Z,10.52
2018-12-22T02:35:29.799Z,10.50
2018-12-22T02:37:57.192Z,10.41
2018-12-22T02:40:24.597Z,10.35
2018-12-22T02:42:52.000Z,10.30
2018-12-22T02:45:19.405Z,10.34
2018-12-22T02:47:46.800Z,10.24
2018-12-22T02:50:15.021Z,10.33
2018-12-22T02:52:42.420Z,10.46
2018-12-22T02:55:09.822Z,10.43
2018-12-22T02:57:37.313Z,10.51
2018-12-22T03:00:08.606Z,10.49
2018-12-22T03:02:36.010Z,10.61
2018-12-22T03:05:03.604Z,10.62
2018-12-22T03:07:31.081Z,10.62
2018-12-22T03:09:58.487Z,10.65
2018-12-22T03:12:25.877Z,10.64
2018-12-22T03:14:53.285Z,10.58
2018-12-22T03:17:20.724Z,10.59
2018-12-22T03:19:48.169Z,10.64
2018-12-22T03:22:15.566Z,10.58
2018-12-22T03:24:42.972Z,10.53
2018-12-22T03:27:10.474Z,10.50
2018-12-22T03:29:38.030Z,10.43
2018-12-22T03:32:05.457Z,10.48
2018-12-22T03:34:32.982Z,10.35
2018-12-22T03:37:00.496Z,10.30
2018-12-22T03:39:27.904Z,10.20
2018-12-22T03:41:55.385Z,10.22
2018-12-22T03:44:22.777Z,10.29
2018-12-22T03:46:50.197Z,10.28
2018-12-22T03:49:17.572Z,10.27
2018-12-22T03:51:45.012Z,10.39
2018-12-22T03:54:12.416Z,10.43
2018-12-22T03:56:39.823Z,10.48
2018-12-22T03:59:07.213Z,10.49
2018-12-22T04:01:34.615Z,10.49
2018-12-22T04:04:02.002Z,10.74
2018-12-22T04:06:29.411Z,10.81
2018-12-22T04:08:56.890Z,10.87
2018-12-22T04:11:24.297Z,10.76
2018-12-22T04:13:51.773Z,10.84
2018-12-22T04:16:19.172Z,10.84
2018-12-22T04:18:46.565Z,10.98
2018-12-22T04:21:13.980Z,10.99
2018-12-22T04:23:41.453Z,11.11
2018-12-22T04:26:08.850Z,10.99
2018-12-22T04:28:36.249Z,10.94
2018-12-22T04:31:03.705Z,10.95
2018-12-22T04:33:31.098Z,10.93
2018-12-22T04:35:58.500Z,10.94
2018-12-22T04:38:25.978Z,10.92
2018-12-22T04:40:53.380Z,10.89
2018-12-22T04:43:20.780Z,10.85
2018-12-22T04:45:48.172Z,10.95
2018-12-22T04:48:15.564Z,10.97
2018-12-22T04:50:42.969Z,10.98
2018-12-22T04:53:10.376Z,11.03
2018-12-22T04:55:37.782Z,11.06
2018-12-22T04:58:05.224Z,11.10
2018-12-22T05:00:32.683Z,11.04
2018-12-22T05:03:00.064Z,11.00
2018-12-22T05:05:27.477Z,10.99
2018-12-22T05:07:54.864Z,10.95
2018-12-22T05:10:22.269Z,11.02
2018-12-22T05:12:49.746Z,11.05
2018-12-22T05:15:17.149Z,11.02
2018-12-22T05:17:44.540Z,11.01
2018-12-22T05:20:11.941Z,10.97
2018-12-22T05:22:39.343Z,11.14
2018-12-22T05:25:06.838Z,11.19
2018-12-22T05:27:34.238Z,11.28
2018-12-22T05:30:01.639Z,11.38
2018-12-22T05:32:29.044Z,11.31
2018-12-22T05:34:56.442Z,11.37
2018-12-22T05:37:23.888Z,11.40
2018-12-22T05:39:51.280Z,11.52
2018-12-22T05:42:18.680Z,11.63
2018-12-22T05:44:46.080Z,11.59
2018-12-22T05:47:13.481Z,11.59
2018-12-22T05:49:40.885Z,11.63
2018-12-22T05:52:08.290Z,11.52
2018-12-22T05:54:35.685Z,11.50
2018-12-22T05:57:03.076Z,11.50
2018-12-22T05:59:30.488Z,11.46
2018-12-22T06:01:57.893Z,11.44
2018-12-22T06:04:25.293Z,11.43
2018-12-22T06:06:52.688Z,11.35
2018-12-22T06:09:20.146Z,11.46
2018-12-22T06:11:47.542Z,11.39
2018-12-22T06:14:15.128Z,11.44
2018-12-22T06:16:42.532Z,11.46
2018-12-22T06:19:09.924Z,11.49
2018-12-22T06:21:37.331Z,11.34
2018-12-22T06:24:04.769Z,11.13
2018-12-22T06:26:32.172Z,11.02
2018-12-22T06:28:59.564Z,10.78
2018-12-22T06:31:26.952Z,10.72
2018-12-22T06:33:54.352Z,10.58
2018-12-22T06:36:21.951Z,10.55
2018-12-22T06:38:49.353Z,10.51
2018-12-22T06:41:16.749Z,10.52
2018-12-22T06:43:44.153Z,10.54
2018-12-22T06:46:11.563Z,10.47
2018-12-22T06:48:39.037Z,10.46
2018-12-22T06:51:06.446Z,10.39
2018-12-22T06:53:33.831Z,10.39
2018-12-22T06:56:01.245Z,10.37
2018-12-22T06:58:28.689Z,10.33
2018-12-22T07:00:56.080Z,10.26
2018-12-22T07:03:23.487Z,10.33
2018-12-22T07:05:50.921Z,10.26
2018-12-22T07:08:18.416Z,10.19
2018-12-22T07:10:45.810Z,10.24
2018-12-22T07:13:13.208Z,10.37
2018-12-22T07:15:40.603Z,10.51
2018-12-22T07:18:08.000Z,10.64
2018-12-22T07:20:35.396Z,10.67
2018-12-22T07:23:02.793Z,10.71
2018-12-22T07:25:30.200Z,10.79
2018-12-22T07:27:57.601Z,10.77
2018-12-22T07:30:26.370Z,10.72
2018-12-22T07:32:57.074Z,10.55
2018-12-22T07:35:23.600Z,10.38
2018-12-22T07:37:51.025Z,10.28
2018-12-22T07:40:18.431Z,10.15
2018-12-22T07:42:45.821Z,10.08
2018-12-22T07:45:13.269Z,10.01
2018-12-22T07:47:40.712Z,10.00
2018-12-22T07:50:08.161Z,10.01
2018-12-22T07:52:35.553Z,9.96
2018-12-22T07:55:02.984Z,9.98
2018-12-22T07:57:30.388Z,10.03
2018-12-22T07:59:57.781Z,9.97
2018-12-22T08:02:25.175Z,9.89
2018-12-22T08:04:52.573Z,9.89
2018-12-22T08:07:20.018Z,9.92
2018-12-22T08:09:47.408Z,9.94
2018-12-22T08:12:14.851Z,9.97
2018-12-22T08:14:42.380Z,9.93
2018-12-22T08:17:09.824Z,9.97
2018-12-22T08:19:37.257Z,10.02
2018-12-22T08:22:04.648Z,10.08
2018-12-22T08:24:37.087Z,10.16
2018-12-22T08:27:04.528Z,10.27
2018-12-22T08:29:31.976Z,10.32
2018-12-22T08:31:59.384Z,10.43
2018-12-22T08:34:26.780Z,10.58
2018-12-22T08:36:54.503Z,10.62
2018-12-22T08:39:22.130Z,10.58
2018-12-22T08:41:49.520Z,10.59
2018-12-22T08:44:17.001Z,10.65
2018-12-22T08:46:44.385Z,10.66
2018-12-22T08:49:11.781Z,10.72
2018-12-22T08:51:39.184Z,10.60
2018-12-22T08:54:06.623Z,10.60
2018-12-22T08:56:34.021Z,10.61
2018-12-22T08:59:01.416Z,10.64
2018-12-22T09:01:28.812Z,10.64
2018-12-22T09:03:56.224Z,10.67
2018-12-22T09:06:23.624Z,10.68
2018-12-22T09:08:51.073Z,10.73
2018-12-22T09:11:18.472Z,10.77
2018-12-22T09:13:45.904Z,10.64
2018-12-22T09:16:13.311Z,10.69
2018-12-22T09:18:40.711Z,10.72
2018-12-22T09:21:08.112Z,10.59
2018-12-22T09:23:36.340Z,10.53
2018-12-22T09:26:03.869Z,10.43
2018-12-22T09:28:31.274Z,10.36
2018-12-22T09:31:00.843Z,10.26
2018-12-22T09:33:28.065Z,10.33
2018-12-22T09:35:55.465Z,10.28
2018-12-22T09:38:22.868Z,10.35
2018-12-22T09:40:50.340Z,10.32
2018-12-22T09:43:17.752Z,10.22
2018-12-22T09:45:45.157Z,10.25
2018-12-22T09:48:12.552Z,10.21
2018-12-22T09:50:39.981Z,10.30
2018-12-22T09:53:07.360Z,10.32
2018-12-22T09:55:34.771Z,10.39
2018-12-22T09:58:02.157Z,10.40
2018-12-22T10:00:29.568Z,10.48
2018-12-22T10:02:56.961Z,10.48
2018-12-22T10:05:24.496Z,10.49
2018-12-22T10:07:51.884Z,10.41
2018-12-22T10:10:19.292Z,10.54
2018-12-22T10:12:46.731Z,10.50
2018-12-22T10:15:14.216Z,10.62
2018-12-22T10:17:41.656Z,10.71
2018-12-22T10:20:09.097Z,10.74
2018-12-22T10:22:36.636Z,10.69
2018-12-22T10:25:06.143Z,10.84
2018-12-22T10:27:33.632Z,10.96
2018-12-22T10:30:01.021Z,11.03
2018-12-22T10:32:28.542Z,11.07
2018-12-22T10:34:56.012Z,11.08
2018-12-22T10:37:23.412Z,11.20
2018-12-22T10:39:50.836Z,11.24
2018-12-22T10:42:18.279Z,11.27
2018-12-22T10:44:45.688Z,11.30
2018-12-22T10:47:13.104Z,11.38
2018-12-22T10:49:40.496Z,11.41
2018-12-22T10:52:07.950Z,11.44
2018-12-22T10:54:35.425Z,11.41
2018-12-22T10:57:04.123Z,11.33
2018-12-22T10:59:31.766Z,11.33
2018-12-22T11:01:59.165Z,11.33
2018-12-22T11:04:26.563Z,11.34
2018-12-22T11:06:53.967Z,11.36
2018-12-22T11:09:21.357Z,11.37
2018-12-22T11:11:48.756Z,11.39
2018-12-22T11:14:16.185Z,11.42
2018-12-22T11:16:43.905Z,11.41
2018-12-22T11:19:11.272Z,11.50
2018-12-22T11:21:38.720Z,11.54
2018-12-22T11:24:06.287Z,11.49
2018-12-22T11:26:33.684Z,11.54
2018-12-22T11:29:01.088Z,11.45
2018-12-22T11:31:34.983Z,11.18
2018-12-22T11:33:57.864Z,11.07
2018-12-22T11:36:25.281Z,10.67
2018-12-22T11:38:52.672Z,10.50
2018-12-22T11:41:20.080Z,10.28
2018-12-22T11:43:47.639Z,10.12
2018-12-22T11:46:15.030Z,9.92
2018-12-22T11:48:43.612Z,9.76
2018-12-22T11:51:11.009Z,9.71
2018-12-22T11:53:38.426Z,9.64
2018-12-22T11:56:05.927Z,9.63
2018-12-22T11:58:33.329Z,9.61
2018-12-22T12:01:00.772Z,9.51
2018-12-22T12:03:28.173Z,9.58
2018-12-22T12:08:32.788Z,9.52
2018-12-22T12:11:00.554Z,9.61
2018-12-22T12:13:28.070Z,9.57
2018-12-22T12:15:55.455Z,9.56
2018-12-22T12:18:46.312Z,9.48
2018-12-22T12:21:13.700Z,9.42
2018-12-22T12:23:41.187Z,9.36
2018-12-22T12:26:09.496Z,9.26
2018-12-22T12:28:36.937Z,9.33
2018-12-22T12:31:04.484Z,9.35
2018-12-22T12:33:31.932Z,9.38
2018-12-22T12:35:59.328Z,9.47
2018-12-22T12:38:26.729Z,9.59
2018-12-22T12:40:54.130Z,9.67
2018-12-22T12:43:21.538Z,9.80
2018-12-22T12:45:48.920Z,9.95
2018-12-22T12:48:16.721Z,10.10
2018-12-22T12:50:44.705Z,10.31
2018-12-22T12:53:12.109Z,10.50
2018-12-22T12:55:39.509Z,10.66
2018-12-22T12:58:12.467Z,10.52
2018-12-22T13:00:40.150Z,10.59
2018-12-22T13:03:08.466Z,10.70
2018-12-22T13:05:36.032Z,10.62
2018-12-22T13:08:03.420Z,10.65
2018-12-22T13:10:30.813Z,10.72
2018-12-22T13:16:01.008Z,10.72
2018-12-22T13:18:28.416Z,10.74
2018-12-22T13:20:55.817Z,10.83
2018-12-22T13:23:23.217Z,10.83
2018-12-22T13:25:50.633Z,10.86
2018-12-22T13:28:18.089Z,10.90
2018-12-22T13:30:45.477Z,10.86
2018-12-22T13:33:12.949Z,10.71
2018-12-22T13:35:40.369Z,10.72
2018-12-22T13:38:07.760Z,10.64
2018-12-22T13:40:35.168Z,10.71
2018-12-22T13:43:02.573Z,10.71
2018-12-22T13:45:29.973Z,10.74
2018-12-22T13:47:57.548Z,10.69
2018-12-22T13:50:25.201Z,10.73
2018-12-22T13:52:52.749Z,10.75
2018-12-22T13:55:20.154Z,10.82
2018-12-22T13:57:47.549Z,10.96
2018-12-22T14:00:19.221Z,10.96
2018-12-22T14:02:46.624Z,10.94
2018-12-22T14:05:21.352Z,10.95
2018-12-22T14:07:48.735Z,10.87
2018-12-22T14:10:16.320Z,10.82
2018-12-22T14:12:43.780Z,10.83
2018-12-22T14:15:15.288Z,10.76
2018-12-22T14:17:45.891Z,10.69
2018-12-22T14:20:13.397Z,10.71
2018-12-22T14:22:40.845Z,10.65
2018-12-22T14:25:12.276Z,10.58
2018-12-22T14:27:39.712Z,10.52
2018-12-22T14:30:11.505Z,10.38
2018-12-22T14:32:38.954Z,10.34
2018-12-22T14:35:11.559Z,10.38
2018-12-22T14:37:39.008Z,10.27
2018-12-22T14:40:11.116Z,10.22
2018-12-22T14:42:38.802Z,10.17
2018-12-22T14:45:12.305Z,10.14
2018-12-22T14:47:39.752Z,10.10
2018-12-22T14:50:10.712Z,10.09
2018-12-22T14:52:38.118Z,10.06
2018-12-22T14:55:09.171Z,10.02
2018-12-22T14:57:40.240Z,9.90
2018-12-22T15:00:14.245Z,9.92
2018-12-22T15:02:41.649Z,9.94
2018-12-22T15:05:09.099Z,9.90
2018-12-22T15:07:36.480Z,9.88
2018-12-22T15:10:07.085Z,9.91
2018-12-22T15:12:34.480Z,9.90
2018-12-22T15:15:01.914Z,9.90
2018-12-22T15:17:29.361Z,9.90
2018-12-22T15:19:56.756Z,9.87
2018-12-22T15:22:24.156Z,9.64
2018-12-22T15:24:51.564Z,9.51
2018-12-22T15:27:19.148Z,9.37
2018-12-22T15:29:46.632Z,9.36
2018-12-22T15:32:14.033Z,9.31
2018-12-22T15:34:41.428Z,9.26
2018-12-22T15:37:08.823Z,9.18
2018-12-22T15:39:36.416Z,9.24
2018-12-22T15:42:03.900Z,9.21
2018-12-22T15:44:31.296Z,9.19
2018-12-22T15:46:58.710Z,9.16
2018-12-22T15:49:26.100Z,9.16
2018-12-22T15:51:53.500Z,9.17
2018-12-22T15:54:20.905Z,9.11
2018-12-22T15:56:48.300Z,9.16
2018-12-22T15:59:15.700Z,8.99
2018-12-22T16:01:43.108Z,8.94
2018-12-22T16:04:10.502Z,9.00
2018-12-22T16:06:37.901Z,8.92
2018-12-22T16:09:05.952Z,8.90
2018-12-22T16:11:33.348Z,8.94
2018-12-22T16:14:00.748Z,8.89
2018-12-22T16:16:28.157Z,9.01
2018-12-22T16:18:55.554Z,9.03
2018-12-22T16:21:23.024Z,8.99
2018-12-22T16:23:50.412Z,9.00
2018-12-22T16:26:17.806Z,8.89
2018-12-22T16:28:45.261Z,8.86
2018-12-22T16:31:12.677Z,8.83
2018-12-22T16:33:40.074Z,8.86
2018-12-22T16:36:07.464Z,8.75
2018-12-22T16:38:34.868Z,8.74
2018-12-22T16:41:02.364Z,8.67
2018-12-22T16:43:29.761Z,8.66
2018-12-22T16:45:57.164Z,8.70
2018-12-22T16:48:24.721Z,8.69
2018-12-22T16:50:52.098Z,8.67
2018-12-22T16:53:19.610Z,8.56
2018-12-22T16:55:47.094Z,8.56
2018-12-22T16:58:20.038Z,8.49
2018-12-22T17:00:59.208Z,8.55
2018-12-22T17:03:26.988Z,8.48
2018-12-22T17:05:54.990Z,8.47
2018-12-22T17:08:22.380Z,8.32
2018-12-22T17:10:49.873Z,8.27
2018-12-22T17:13:17.445Z,8.22
2018-12-22T17:15:45.609Z,8.30
2018-12-22T17:18:13.010Z,8.27
2018-12-22T17:20:40.408Z,8.18
2018-12-22T17:23:18.376Z,8.24
2018-12-22T17:25:49.485Z,8.37
2018-12-22T17:28:16.876Z,8.51
2018-12-22T17:30:44.271Z,8.59
2018-12-22T17:33:18.858Z,8.65
2018-12-22T17:35:41.196Z,8.70
2018-12-22T17:38:08.596Z,8.86
2018-12-22T17:40:36.065Z,8.73
2018-12-22T17:43:03.512Z,8.68
2018-12-22T17:45:31.913Z,8.67
2018-12-22T17:47:59.500Z,8.76
2018-12-22T17:50:26.901Z,8.76
2018-12-22T17:52:54.299Z,8.61
2018-12-22T17:55:21.773Z,8.65
2018-12-22T17:57:49.168Z,8.63
2018-12-22T18:00:16.558Z,8.60
2018-12-22T18:02:46.471Z,8.53
2018-12-22T18:05:13.860Z,8.70
2018-12-22T18:07:41.308Z,8.66
2018-12-22T18:10:11.204Z,8.66
2018-12-22T18:12:38.591Z,8.71
2018-12-22T18:15:15.036Z,8.78
2018-12-22T18:17:42.480Z,8.77
2018-12-22T18:20:10.117Z,8.76
2018-12-22T18:22:37.573Z,8.80
2018-12-22T18:25:10.076Z,8.80
2018-12-22T18:27:37.486Z,8.80
2018-12-22T18:30:08.780Z,8.77
2018-12-22T18:32:36.173Z,8.87
2018-12-22T18:35:04.064Z,8.81
2018-12-22T18:37:31.488Z,8.65
2018-12-22T18:39:58.885Z,8.72
2018-12-22T18:42:26.328Z,8.63
2018-12-22T18:44:53.742Z,8.64
2018-12-22T18:47:21.190Z,8.65
2018-12-22T18:49:48.589Z,8.65
2018-12-22T18:52:15.993Z,8.61
2018-12-22T18:54:43.391Z,8.61
2018-12-22T18:57:10.786Z,8.65
2018-12-22T18:59:38.276Z,8.81
2018-12-22T19:02:05.732Z,8.86
2018-12-22T19:04:33.176Z,8.84
2018-12-22T19:07:00.584Z,8.84
2018-12-22T19:09:28.025Z,8.76
2018-12-22T19:11:55.420Z,8.82
2018-12-22T19:14:22.876Z,8.81
2018-12-22T19:16:50.287Z,8.96
2018-12-22T19:19:17.724Z,9.03
2018-12-22T19:21:45.119Z,9.06
2018-12-22T19:24:12.528Z,9.17
2018-12-22T19:26:39.926Z,9.08
2018-12-22T19:29:07.313Z,9.18
2018-12-22T19:31:41.728Z,9.08
2018-12-22T19:34:04.157Z,9.08
2018-12-22T19:36:31.548Z,9.00
2018-12-22T19:38:58.958Z,9.01
2018-12-22T19:41:26.352Z,9.19
2018-12-22T19:43:53.745Z,9.26
2018-12-22T19:46:21.149Z,9.21
2018-12-22T19:48:48.592Z,9.15
2018-12-22T19:51:16.000Z,9.38
2018-12-22T19:53:43.396Z,9.31
2018-12-22T19:56:10.787Z,9.31
2018-12-22T19:58:38.184Z,9.48
2018-12-22T20:01:05.588Z,9.43
2018-12-22T20:03:33.002Z,9.40
2018-12-22T20:06:00.413Z,9.38
2018-12-22T20:08:27.805Z,9.39
2018-12-22T20:10:55.193Z,9.40
2018-12-22T20:13:22.605Z,9.47
2018-12-22T20:15:49.990Z,9.40
2018-12-22T20:18:17.384Z,9.51
2018-12-22T20:20:44.796Z,9.52
2018-12-22T20:23:12.213Z,9.53
2018-12-22T20:25:39.600Z,9.44
2018-12-22T20:28:07.005Z,9.37
2018-12-22T20:30:34.404Z,9.31
2018-12-22T20:33:01.796Z,9.33
2018-12-22T20:35:29.200Z,9.27
2018-12-22T20:37:56.592Z,9.39
2018-12-22T20:40:23.989Z,9.35
2018-12-22T20:42:51.400Z,9.18
2018-12-22T20:45:18.801Z,9.32
2018-12-22T20:47:46.193Z,9.29
2018-12-22T20:50:13.652Z,9.28
2018-12-22T20:52:41.049Z,9.13
2018-12-22T20:55:08.484Z,9.09
2018-12-22T20:57:35.891Z,9.09
2018-12-22T21:00:05.008Z,9.04
2018-12-22T21:02:32.447Z,8.93
2018-12-22T21:04:59.867Z,8.91
2018-12-22T21:07:27.301Z,8.93
2018-12-22T21:09:54.693Z,8.90
2018-12-22T21:12:22.096Z,8.93
2018-12-22T21:14:49.553Z,8.97
2018-12-22T21:17:16.949Z,8.89
2018-12-22T21:19:44.376Z,8.96
2018-12-22T21:22:11.765Z,9.02
2018-12-22T21:24:39.176Z,8.93
2018-12-22T21:27:06.584Z,8.96
2018-12-22T21:29:34.033Z,9.07
2018-12-22T21:32:01.435Z,9.03
2018-12-22T21:34:28.836Z,9.14
2018-12-22T21:36:56.228Z,9.30
2018-12-22T21:39:23.636Z,9.16
2018-12-22T21:41:51.120Z,9.35
2018-12-22T21:44:18.597Z,9.44
2018-12-22T21:46:46.001Z,9.42
2018-12-22T21:49:13.389Z,9.48
2018-12-22T21:51:40.798Z,9.52
2018-12-22T21:54:08.205Z,9.45
2018-12-22T21:56:35.643Z,9.49
2018-12-22T21:59:03.044Z,9.43
2018-12-22T22:01:30.454Z,9.27
2018-12-22T22:03:57.848Z,9.31
2018-12-22T22:06:25.237Z,9.37
2018-12-22T22:08:52.649Z,9.37
2018-12-22T22:11:20.092Z,9.35
2018-12-22T22:13:47.614Z,9.37
2018-12-22T22:16:15.096Z,9.41
2018-12-22T22:18:42.483Z,9.30
2018-12-22T22:21:09.884Z,9.21
2018-12-22T22:23:37.286Z,9.26
2018-12-22T22:26:04.767Z,9.24
2018-12-22T22:28:32.172Z,9.19
2018-12-22T22:30:59.579Z,9.20
2018-12-22T22:33:26.985Z,9.19
2018-12-22T22:35:54.375Z,9.11
2018-12-22T22:38:21.776Z,9.09
2018-12-22T22:40:49.173Z,9.01
2018-12-22T22:43:16.564Z,8.94
2018-12-22T22:45:43.972Z,9.06
2018-12-22T22:48:11.361Z,9.06
2018-12-22T22:50:38.756Z,9.07
2018-12-22T22:53:06.169Z,8.95
2018-12-22T22:55:33.567Z,9.04
2018-12-22T22:58:00.959Z,9.05
2018-12-22T23:00:30.365Z,9.12
2018-12-22T23:02:57.761Z,9.00
2018-12-22T23:05:25.205Z,8.91
2018-12-22T23:07:52.663Z,8.95
2018-12-22T23:10:20.052Z,9.00
2018-12-22T23:12:47.448Z,8.97
2018-12-22T23:15:15.619Z,8.91
2018-12-22T23:17:43.450Z,8.87
2018-12-22T23:20:10.836Z,8.93
2018-12-22T23:22:38.255Z,8.91
2018-12-22T23:25:05.902Z,8.79
2018-12-22T23:27:33.292Z,8.94
2018-12-22T23:30:00.702Z,8.90
2018-12-22T23:32:28.136Z,8.83
2018-12-22T23:35:02.790Z,9.03
2018-12-22T23:37:24.937Z,8.94
2018-12-22T23:39:52.336Z,9.03
2018-12-22T23:42:19.736Z,9.02
2018-12-22T23:44:47.136Z,9.09
2018-12-22T23:47:14.528Z,9.06
2018-12-22T23:49:41.933Z,9.06
2018-12-22T23:52:09.329Z,9.06
2018-12-22T23:54:36.728Z,8.99
2018-12-22T23:57:04.125Z,9.09
2018-12-22T23:59:31.536Z,8.87
